Time,TemperatureF,DewpointF,PressureIn,WindDirection,WindDirectionDegrees,WindSpeedMPH,WindSpeedGustMPH,Humidity,HourlyPrecipIn,Conditions,Clouds,dailyrainin,SoftwareType,DateUTC
2013-08-08 00:01:00,74.2,72.0,29.83,NW,315,0.4,0.4,93,0.00,,,0.00,WUHU216HW,2013-08-08 05:01:00,
2013-08-08 00:06:00,74.2,72.0,29.83,NW,315,0.0,0.4,93,0.00,,,0.00,WUHU216HW,2013-08-08 05:06:00,
2013-08-08 00:11:00,74.0,71.8,29.83,NW,315,0.1,0.2,93,0.00,,,0.00,WUHU216HW,2013-08-08 05:11:00,
2013-08-08 00:16:00,74.0,71.8,29.83,NW,315,0.0,0.2,93,0.00,,,0.00,WUHU216HW,2013-08-08 05:16:00,
2013-08-08 00:21:00,73.8,72.0,29.82,NW,315,0.0,0.0,94,0.00,,,0.00,WUHU216HW,2013-08-08 05:21:00,
2013-08-08 00:26:00,73.8,72.0,29.82,NW,315,0.0,0.0,94,0.00,,,0.00,WUHU216HW,2013-08-08 05:26:00,
2013-08-08 00:31:00,73.8,72.0,29.82,ESE,113,1.1,1.1,94,0.00,,,0.00,WUHU216HW,2013-08-08 05:31:00,
2013-08-08 00:36:00,73.8,72.0,29.82,ESE,113,0.3,1.1,94,0.00,,,0.00,WUHU216HW,2013-08-08 05:36:00,
2013-08-08 00:41:00,73.8,72.0,29.83,ESE,113,0.0,0.7,94,0.00,,,0.00,WUHU216HW,2013-08-08 05:41:00,
2013-08-08 00:46:00,73.8,72.0,29.83,ESE,113,0.0,0.0,94,0.00,,,0.00,WUHU216HW,2013-08-08 05:46:00,
2013-08-08 00:51:00,73.8,72.0,29.83,ESE,113,0.0,0.0,94,0.00,,,0.00,WUHU216HW,2013-08-08 05:51:00,
2013-08-08 00:56:00,73.6,71.8,29.82,ESE,113,0.2,0.4,94,0.00,,,0.00,WUHU216HW,2013-08-08 05:56:00,
2013-08-08 01:01:00,73.6,71.8,29.82,ESE,113,0.0,0.4,94,0.00,,,0.00,WUHU216HW,2013-08-08 06:01:00,
2013-08-08 01:06:00,73.6,71.8,29.82,ESE,113,0.0,0.0,94,0.00,,,0.00,WUHU216HW,2013-08-08 06:06:00,
2013-08-08 01:11:00,73.6,71.8,29.82,ESE,113,0.0,0.0,94,0.00,,,0.00,WUHU216HW,2013-08-08 06:11:00,
2013-08-08 01:16:00,73.6,71.8,29.83,ESE,113,0.0,0.0,94,0.00,,,0.00,WUHU216HW,2013-08-08 06:16:00,
2013-08-08 01:21:00,73.4,71.7,29.83,ESE,113,0.4,0.4,94,0.00,,,0.00,WUHU216HW,2013-08-08 06:21:00,
2013-08-08 01:26:00,73.4,71.7,29.83,ESE,113,0.0,0.4,94,0.00,,,0.00,WUHU216HW,2013-08-08 06:26:00,
2013-08-08 01:31:00,73.4,71.7,29.83,ESE,113,0.4,0.4,94,0.00,,,0.00,WUHU216HW,2013-08-08 06:31:00,
2013-08-08 01:36:00,73.4,71.7,29.82,ESE,113,0.0,0.4,94,0.00,,,0.00,WUHU216HW,2013-08-08 06:36:00,
2013-08-08 01:41:00,73.4,71.7,29.82,ESE,113,0.0,0.0,94,0.00,,,0.00,WUHU216HW,2013-08-08 06:41:00,
2013-08-08 01:46:00,73.4,71.7,29.82,ESE,113,0.0,0.0,94,0.00,,,0.00,WUHU216HW,2013-08-08 06:46:00,
2013-08-08 01:51:00,73.4,71.7,29.83,ESE,113,0.0,0.0,94,0.00,,,0.00,WUHU216HW,2013-08-08 06:51:00,
2013-08-08 01:56:00,73.4,71.7,29.83,ESE,113,0.0,0.0,94,0.00,,,0.00,WUHU216HW,2013-08-08 06:56:00,
2013-08-08 02:01:00,73.4,71.9,29.83,ESE,113,0.4,0.4,95,0.00,,,0.00,WUHU216HW,2013-08-08 07:01:00,
2013-08-08 02:06:00,73.4,71.9,29.83,ESE,113,0.2,0.7,95,0.00,,,0.00,WUHU216HW,2013-08-08 07:06:00,
2013-08-08 02:11:00,73.4,71.9,29.83,ESE,113,0.2,0.7,95,0.00,,,0.00,WUHU216HW,2013-08-08 07:11:00,
2013-08-08 02:16:00,73.6,72.1,29.83,ESE,113,1.1,1.1,95,0.00,,,0.00,WUHU216HW,2013-08-08 07:16:00,
2013-08-08 02:21:00,73.6,72.1,29.82,ESE,113,0.6,1.1,95,0.00,,,0.00,WUHU216HW,2013-08-08 07:21:00,
2013-08-08 02:26:00,73.6,72.1,29.83,ESE,113,0.6,1.1,95,0.00,,,0.00,WUHU216HW,2013-08-08 07:26:00,
2013-08-08 02:31:00,73.6,72.1,29.83,ESE,113,0.9,1.1,95,0.00,,,0.00,WUHU216HW,2013-08-08 07:31:00,
2013-08-08 02:36:00,73.6,72.1,29.83,ESE,113,0.2,0.9,95,0.00,,,0.00,WUHU216HW,2013-08-08 07:36:00,
2013-08-08 02:41:00,73.6,72.1,29.82,ESE,113,0.1,0.9,95,0.00,,,0.00,WUHU216HW,2013-08-08 07:41:00,
2013-08-08 02:46:00,73.4,71.9,29.83,ESE,113,0.0,0.9,95,0.00,,,0.00,WUHU216HW,2013-08-08 07:46:00,
2013-08-08 02:51:00,73.4,71.9,29.83,ESE,113,0.0,0.2,95,0.00,,,0.00,WUHU216HW,2013-08-08 07:51:00,
2013-08-08 02:56:00,73.4,71.9,29.83,SE,135,1.1,1.1,95,0.00,,,0.00,WUHU216HW,2013-08-08 07:56:00,
2013-08-08 03:01:00,73.4,71.9,29.83,SE,135,1.1,1.3,95,0.00,,,0.00,WUHU216HW,2013-08-08 08:01:00,
2013-08-08 03:06:00,73.4,71.9,29.82,SE,135,0.4,1.3,95,0.00,,,0.00,WUHU216HW,2013-08-08 08:06:00,
2013-08-08 03:11:00,73.4,71.9,29.82,ESE,123,1.2,1.6,95,0.00,,,0.00,WUHU216HW,2013-08-08 08:11:00,
2013-08-08 03:16:00,73.4,71.9,29.82,SE,135,0.0,1.6,95,0.00,,,0.00,WUHU216HW,2013-08-08 08:16:00,
2013-08-08 03:21:00,73.4,71.9,29.81,SE,135,0.0,0.4,95,0.00,,,0.00,WUHU216HW,2013-08-08 08:21:00,
2013-08-08 03:26:00,73.4,71.9,29.81,SE,135,0.0,0.4,95,0.00,,,0.00,WUHU216HW,2013-08-08 08:26:00,
2013-08-08 03:31:00,73.4,71.9,29.81,SE,135,0.0,0.0,95,0.00,,,0.00,WUHU216HW,2013-08-08 08:31:00,
2013-08-08 03:36:00,73.4,71.9,29.81,SE,135,0.0,0.0,95,0.00,,,0.00,WUHU216HW,2013-08-08 08:36:00,
2013-08-08 03:41:00,73.4,71.9,29.81,ESE,113,0.0,0.0,95,0.00,,,0.00,WUHU216HW,2013-08-08 08:41:00,
2013-08-08 03:46:00,73.4,71.9,29.80,SE,135,0.0,0.2,95,0.00,,,0.00,WUHU216HW,2013-08-08 08:46:00,
2013-08-08 03:51:00,73.4,71.9,29.80,SE,135,0.0,0.2,95,0.00,,,0.00,WUHU216HW,2013-08-08 08:51:00,
2013-08-08 03:56:00,73.4,71.7,29.80,SE,135,0.0,0.0,94,0.00,,,0.00,WUHU216HW,2013-08-08 08:56:00,
2013-08-08 04:01:00,73.3,71.5,29.80,SE,135,0.0,0.0,94,0.00,,,0.00,WUHU216HW,2013-08-08 09:01:00,
2013-08-08 04:06:00,73.3,71.5,29.78,ESE,113,0.0,0.4,94,0.00,,,0.00,WUHU216HW,2013-08-08 09:06:00,
2013-08-08 04:11:00,73.1,71.3,29.78,ESE,113,0.0,0.4,94,0.02,,,0.02,WUHU216HW,2013-08-08 09:11:00,
2013-08-08 04:16:00,73.1,71.3,29.78,ESE,113,0.0,0.0,94,0.02,,,0.02,WUHU216HW,2013-08-08 09:16:00,
2013-08-08 04:21:00,73.1,71.3,29.78,ESE,113,0.4,0.7,94,0.02,,,0.02,WUHU216HW,2013-08-08 09:21:00,
2013-08-08 04:26:00,73.1,71.3,29.77,ESE,113,0.2,0.7,94,0.02,,,0.02,WUHU216HW,2013-08-08 09:26:00,
2013-08-08 04:31:00,73.1,71.3,29.78,ESE,113,0.0,0.7,94,0.02,,,0.02,WUHU216HW,2013-08-08 09:31:00,
2013-08-08 04:36:00,73.1,71.3,29.79,ESE,113,0.0,0.4,94,0.02,,,0.02,WUHU216HW,2013-08-08 09:36:00,
2013-08-08 04:41:00,73.1,71.3,29.79,ESE,113,0.0,0.0,94,0.02,,,0.02,WUHU216HW,2013-08-08 09:41:00,
2013-08-08 04:46:00,73.1,71.3,29.79,ESE,113,0.0,0.0,94,0.03,,,0.03,WUHU216HW,2013-08-08 09:46:00,
2013-08-08 04:51:00,72.9,71.1,29.79,ESE,113,0.0,0.0,94,0.03,,,0.03,WUHU216HW,2013-08-08 09:51:00,
2013-08-08 04:56:00,73.1,71.3,29.79,ESE,113,0.3,0.4,94,0.04,,,0.04,WUHU216HW,2013-08-08 09:56:00,
2013-08-08 05:01:00,73.1,71.3,29.79,ESE,113,0.3,0.7,94,0.04,,,0.04,WUHU216HW,2013-08-08 10:01:00,
2013-08-08 05:06:00,73.1,71.3,29.80,ESE,113,0.4,1.8,94,0.04,,,0.04,WUHU216HW,2013-08-08 10:06:00,
2013-08-08 05:11:00,73.1,71.3,29.80,ESE,113,0.0,1.8,94,0.03,,,0.05,WUHU216HW,2013-08-08 10:11:00,
2013-08-08 05:16:00,72.9,71.1,29.80,ESE,113,0.0,0.4,94,0.03,,,0.05,WUHU216HW,2013-08-08 10:16:00,
2013-08-08 05:21:00,72.9,71.1,29.81,ESE,113,0.0,0.0,94,0.03,,,0.05,WUHU216HW,2013-08-08 10:21:00,
2013-08-08 05:26:00,72.7,70.9,29.81,ESE,113,0.6,0.7,94,0.04,,,0.06,WUHU216HW,2013-08-08 10:26:00,
2013-08-08 05:31:00,72.7,70.9,29.81,ESE,113,1.1,1.1,94,0.04,,,0.06,WUHU216HW,2013-08-08 10:31:00,
2013-08-08 05:36:00,72.5,70.8,29.81,ESE,113,0.8,1.3,94,0.05,,,0.07,WUHU216HW,2013-08-08 10:36:00,
2013-08-08 05:41:00,72.5,70.8,29.82,ESE,113,0.0,1.3,94,0.06,,,0.08,WUHU216HW,2013-08-08 10:41:00,
2013-08-08 05:46:00,72.5,70.8,29.83,ESE,113,0.0,0.7,94,0.05,,,0.08,WUHU216HW,2013-08-08 10:46:00,
2013-08-08 05:51:00,72.4,70.6,29.83,ESE,113,0.0,0.2,94,0.06,,,0.09,WUHU216HW,2013-08-08 10:51:00,
2013-08-08 05:56:00,72.4,70.6,29.83,ESE,113,0.0,0.2,94,0.06,,,0.10,WUHU216HW,2013-08-08 10:56:00,
2013-08-08 06:01:00,72.2,70.4,29.83,ESE,113,0.0,0.2,94,0.07,,,0.11,WUHU216HW,2013-08-08 11:01:00,
2013-08-08 06:06:00,72.0,70.2,29.84,ESE,113,0.1,0.2,94,0.09,,,0.13,WUHU216HW,2013-08-08 11:06:00,
2013-08-08 06:11:00,72.0,70.2,29.84,ESE,113,0.0,0.2,94,0.09,,,0.14,WUHU216HW,2013-08-08 11:11:00,
2013-08-08 06:16:00,72.0,70.2,29.84,ESE,113,0.0,0.0,94,0.09,,,0.14,WUHU216HW,2013-08-08 11:16:00,
2013-08-08 06:21:00,72.0,70.2,29.85,ESE,113,0.4,0.4,94,0.10,,,0.15,WUHU216HW,2013-08-08 11:21:00,
2013-08-08 06:26:00,71.8,70.0,29.85,ESE,113,0.4,0.4,94,0.10,,,0.16,WUHU216HW,2013-08-08 11:26:00,
2013-08-08 06:31:00,71.8,70.0,29.85,ESE,113,0.2,0.4,94,0.12,,,0.18,WUHU216HW,2013-08-08 11:31:00,
2013-08-08 06:36:00,71.6,69.9,29.84,WSW,248,0.1,0.4,94,0.12,,,0.19,WUHU216HW,2013-08-08 11:36:00,
2013-08-08 06:41:00,71.6,69.9,29.84,ENE,68,0.1,0.4,94,0.13,,,0.21,WUHU216HW,2013-08-08 11:41:00,
2013-08-08 06:46:00,71.5,69.7,29.84,East,90,0.4,0.7,94,0.14,,,0.23,WUHU216HW,2013-08-08 11:46:00,
2013-08-08 06:51:00,71.3,69.5,29.85,SW,225,1.5,1.8,94,0.14,,,0.24,WUHU216HW,2013-08-08 11:51:00,
2013-08-08 06:56:00,71.3,69.5,29.86,SW,225,0.2,1.8,94,0.15,,,0.26,WUHU216HW,2013-08-08 11:56:00,
2013-08-08 07:01:00,71.3,69.5,29.86,SW,225,0.9,1.1,94,0.15,,,0.27,WUHU216HW,2013-08-08 12:01:00,
2013-08-08 07:06:00,71.1,69.3,29.87,SW,225,0.6,1.3,94,0.17,,,0.30,WUHU216HW,2013-08-08 12:06:00,
2013-08-08 07:11:00,71.1,69.3,29.87,SW,225,1.1,1.3,94,0.17,,,0.31,WUHU216HW,2013-08-08 12:11:00,
2013-08-08 07:16:00,71.1,69.3,29.88,WSW,248,1.8,1.8,94,0.18,,,0.33,WUHU216HW,2013-08-08 12:16:00,
2013-08-08 07:21:00,70.9,69.4,29.88,SW,217,2.3,2.9,95,0.18,,,0.34,WUHU216HW,2013-08-08 12:21:00,
2013-08-08 07:26:00,70.9,69.4,29.89,SW,225,2.0,2.9,95,0.19,,,0.36,WUHU216HW,2013-08-08 12:26:00,
2013-08-08 07:31:00,70.9,69.4,29.89,SW,225,2.0,3.8,95,0.19,,,0.37,WUHU216HW,2013-08-08 12:31:00,
2013-08-08 07:36:00,70.7,69.2,29.90,SSW,212,2.2,3.8,95,0.18,,,0.38,WUHU216HW,2013-08-08 12:36:00,
2013-08-08 07:41:00,70.7,69.2,29.90,SW,225,1.3,3.6,95,0.17,,,0.39,WUHU216HW,2013-08-08 12:41:00,
2013-08-08 07:46:00,70.7,69.2,29.90,SW,225,2.7,3.1,95,0.17,,,0.40,WUHU216HW,2013-08-08 12:46:00,
2013-08-08 07:51:00,70.6,69.0,29.90,SW,225,1.8,5.4,95,0.17,,,0.42,WUHU216HW,2013-08-08 12:51:00,
2013-08-08 07:56:00,70.6,69.0,29.89,WSW,248,2.5,5.4,95,0.18,,,0.44,WUHU216HW,2013-08-08 12:56:00,
2013-08-08 08:01:00,70.6,69.0,29.89,SW,235,2.3,2.9,95,0.17,,,0.45,WUHU216HW,2013-08-08 13:01:00,
2013-08-08 08:06:00,70.6,69.0,29.89,SW,225,1.8,4.3,95,0.17,,,0.47,WUHU216HW,2013-08-08 13:06:00,
2013-08-08 08:11:00,70.6,69.0,29.89,WSW,248,0.4,4.3,95,0.17,,,0.49,WUHU216HW,2013-08-08 13:11:00,
2013-08-08 08:16:00,70.6,69.0,29.89,WSW,248,0.0,1.8,95,0.16,,,0.49,WUHU216HW,2013-08-08 13:16:00,
2013-08-08 08:21:00,70.6,69.0,29.89,WNW,293,0.0,0.7,95,0.15,,,0.50,WUHU216HW,2013-08-08 13:21:00,
2013-08-08 08:26:00,70.6,69.0,29.89,West,270,0.4,0.4,95,0.14,,,0.50,WUHU216HW,2013-08-08 13:26:00,
2013-08-08 08:31:00,70.6,69.0,29.89,NW,315,0.1,0.7,95,0.14,,,0.51,WUHU216HW,2013-08-08 13:31:00,
2013-08-08 08:36:00,70.6,69.0,29.90,SW,225,0.4,0.9,95,0.13,,,0.51,WUHU216HW,2013-08-08 13:36:00,
2013-08-08 08:41:00,70.4,68.9,29.89,SSW,208,0.8,2.0,95,0.12,,,0.52,WUHU216HW,2013-08-08 13:41:00,
2013-08-08 08:46:00,70.4,68.9,29.88,NNE,23,0.8,2.0,95,0.11,,,0.52,WUHU216HW,2013-08-08 13:46:00,
2013-08-08 08:51:00,70.2,68.7,29.88,WNW,293,0.8,1.3,95,0.12,,,0.54,WUHU216HW,2013-08-08 13:51:00,
2013-08-08 08:56:00,70.2,68.7,29.88,SW,225,0.4,1.3,95,0.10,,,0.54,WUHU216HW,2013-08-08 13:56:00,
2013-08-08 09:01:00,70.0,68.5,29.89,North,0,0.7,1.3,95,0.09,,,0.54,WUHU216HW,2013-08-08 14:01:00,
2013-08-08 09:06:00,70.2,68.7,29.88,North,0,0.2,1.3,95,0.07,,,0.54,WUHU216HW,2013-08-08 14:06:00,
2013-08-08 09:11:00,70.2,68.7,29.87,South,180,0.2,0.4,95,0.07,,,0.56,WUHU216HW,2013-08-08 14:11:00,
2013-08-08 09:16:00,70.2,68.7,29.87,South,180,0.3,0.7,95,0.07,,,0.56,WUHU216HW,2013-08-08 14:16:00,
2013-08-08 09:21:00,70.2,68.7,29.87,SSE,158,0.0,0.7,95,0.06,,,0.56,WUHU216HW,2013-08-08 14:21:00,
2013-08-08 09:26:00,70.2,68.7,29.86,East,90,0.0,1.1,95,0.06,,,0.56,WUHU216HW,2013-08-08 14:26:00,
2013-08-08 09:31:00,70.4,68.9,29.85,ENE,68,0.9,1.8,95,0.05,,,0.56,WUHU216HW,2013-08-08 14:31:00,
2013-08-08 09:36:00,70.6,69.0,29.85,ESE,113,0.7,1.8,95,0.04,,,0.56,WUHU216HW,2013-08-08 14:36:00,
2013-08-08 09:41:00,70.6,69.0,29.84,SE,135,1.3,1.3,95,0.04,,,0.56,WUHU216HW,2013-08-08 14:41:00,
2013-08-08 09:46:00,70.6,69.0,29.84,SE,135,1.8,1.8,95,0.04,,,0.56,WUHU216HW,2013-08-08 14:46:00,
2013-08-08 09:51:00,70.7,69.2,29.84,ESE,113,1.8,1.8,95,0.02,,,0.56,WUHU216HW,2013-08-08 14:51:00,
2013-08-08 09:56:00,70.9,69.4,29.84,ESE,113,2.2,2.5,95,0.02,,,0.56,WUHU216HW,2013-08-08 14:56:00,
2013-08-08 10:01:00,71.1,69.6,29.84,ESE,113,0.2,2.5,95,0.02,,,0.56,WUHU216HW,2013-08-08 15:01:00,
2013-08-08 10:06:00,71.5,69.9,29.84,SE,135,0.4,2.0,95,0.02,,,0.56,WUHU216HW,2013-08-08 15:06:00,
2013-08-08 10:11:00,71.6,70.1,29.84,SSE,158,1.3,1.3,95,0.00,,,0.56,WUHU216HW,2013-08-08 15:11:00,
2013-08-08 10:16:00,71.8,70.3,29.84,ESE,113,0.6,1.8,95,0.00,,,0.56,WUHU216HW,2013-08-08 15:16:00,
2013-08-08 10:21:00,72.0,70.5,29.84,SE,135,0.9,2.0,95,0.00,,,0.56,WUHU216HW,2013-08-08 15:21:00,
2013-08-08 10:26:00,72.2,70.7,29.84,ESE,113,0.7,2.0,95,0.00,,,0.56,WUHU216HW,2013-08-08 15:26:00,
2013-08-08 10:31:00,72.4,70.8,29.84,ENE,68,2.5,2.5,95,0.00,,,0.56,WUHU216HW,2013-08-08 15:31:00,
2013-08-08 10:36:00,72.5,71.0,29.83,ESE,113,1.2,2.5,95,0.00,,,0.56,WUHU216HW,2013-08-08 15:36:00,
2013-08-08 10:41:00,72.5,71.0,29.83,ESE,119,1.9,3.1,95,0.00,,,0.56,WUHU216HW,2013-08-08 15:41:00,
2013-08-08 10:46:00,72.7,71.2,29.84,ESE,113,0.2,3.1,95,0.00,,,0.56,WUHU216HW,2013-08-08 15:46:00,
2013-08-08 10:51:00,72.9,71.4,29.83,East,90,0.7,3.1,95,0.00,,,0.56,WUHU216HW,2013-08-08 15:51:00,
2013-08-08 10:56:00,73.1,71.6,29.83,ESE,113,0.8,3.1,95,0.00,,,0.56,WUHU216HW,2013-08-08 15:56:00,
2013-08-08 11:01:00,73.3,71.7,29.83,ESE,121,2.8,3.4,95,0.00,,,0.56,WUHU216HW,2013-08-08 16:01:00,
2013-08-08 11:06:00,73.4,71.9,29.83,East,90,2.2,3.4,95,0.00,,,0.56,WUHU216HW,2013-08-08 16:06:00,
2013-08-08 11:11:00,73.8,72.5,29.83,South,180,1.1,2.2,96,0.00,,,0.56,WUHU216HW,2013-08-08 16:11:00,
2013-08-08 11:16:00,74.2,72.9,29.83,SSW,203,1.1,1.8,96,0.00,,,0.56,WUHU216HW,2013-08-08 16:16:00,
2013-08-08 11:21:00,74.3,72.8,29.83,SSW,203,1.1,1.3,95,0.00,,,0.56,WUHU216HW,2013-08-08 16:21:00,
2013-08-08 11:26:00,74.5,73.0,29.83,SE,135,0.4,1.6,95,0.00,,,0.56,WUHU216HW,2013-08-08 16:26:00,
2013-08-08 11:31:00,74.5,73.0,29.83,SW,225,0.7,1.6,95,0.00,,,0.56,WUHU216HW,2013-08-08 16:31:00,
2013-08-08 11:36:00,74.9,73.4,29.83,ESE,113,1.8,1.8,95,0.00,,,0.56,WUHU216HW,2013-08-08 16:36:00,
2013-08-08 11:41:00,74.9,73.4,29.83,SE,135,0.7,1.8,95,0.00,,,0.56,WUHU216HW,2013-08-08 16:41:00,
2013-08-08 11:46:00,75.2,73.7,29.83,SSW,203,1.3,1.6,95,0.00,,,0.56,WUHU216HW,2013-08-08 16:46:00,
2013-08-08 11:51:00,75.4,73.6,29.83,WSW,242,0.8,1.6,94,0.00,,,0.56,WUHU216HW,2013-08-08 16:51:00,
2013-08-08 11:56:00,75.6,73.2,29.83,SW,234,2.0,2.5,92,0.00,,,0.56,WUHU216HW,2013-08-08 16:56:00,
2013-08-08 12:01:00,76.0,74.2,29.82,SE,144,0.9,2.5,94,0.00,,,0.56,WUHU216HW,2013-08-08 17:01:00,
2013-08-08 12:06:00,76.9,74.4,29.82,ESE,113,1.6,2.5,92,0.00,,,0.56,WUHU216HW,2013-08-08 17:06:00,
2013-08-08 12:11:00,77.4,74.6,29.82,ENE,68,1.1,2.5,91,0.00,,,0.56,WUHU216HW,2013-08-08 17:11:00,
2013-08-08 12:16:00,77.9,75.2,29.82,ESE,113,1.3,2.2,91,0.00,,,0.56,WUHU216HW,2013-08-08 17:16:00,
2013-08-08 12:21:00,78.1,74.7,29.82,SW,225,1.6,2.2,89,0.00,,,0.56,WUHU216HW,2013-08-08 17:21:00,
2013-08-08 12:26:00,78.5,75.1,29.82,East,90,1.1,2.0,89,0.00,,,0.56,WUHU216HW,2013-08-08 17:26:00,
2013-08-08 12:31:00,78.8,75.1,29.82,SE,135,1.8,2.0,88,0.00,,,0.56,WUHU216HW,2013-08-08 17:31:00,
2013-08-08 12:36:00,79.2,75.4,29.82,East,101,2.1,3.1,88,0.00,,,0.56,WUHU216HW,2013-08-08 17:36:00,
2013-08-08 12:41:00,79.2,73.3,29.82,ESE,113,1.1,3.1,82,0.00,,,0.56,WUHU216HW,2013-08-08 17:41:00,
2013-08-08 12:46:00,79.2,74.0,29.81,NNE,23,1.8,2.5,84,0.00,,,0.56,WUHU216HW,2013-08-08 17:46:00,
2013-08-08 12:51:00,79.2,74.0,29.81,North,0,0.4,1.8,84,0.00,,,0.56,WUHU216HW,2013-08-08 17:51:00,
2013-08-08 12:56:00,79.4,74.5,29.81,North,0,0.8,2.5,85,0.00,,,0.56,WUHU216HW,2013-08-08 17:56:00,
2013-08-08 13:01:00,79.7,74.9,29.81,East,86,1.1,2.5,85,0.00,,,0.56,WUHU216HW,2013-08-08 18:01:00,
2013-08-08 13:06:00,79.9,72.5,29.81,SE,135,1.1,2.9,78,0.00,,,0.56,WUHU216HW,2013-08-08 18:06:00,
2013-08-08 13:11:00,79.9,74.4,29.81,North,0,0.7,2.9,83,0.00,,,0.56,WUHU216HW,2013-08-08 18:11:00,
2013-08-08 13:16:00,80.1,74.2,29.81,North,0,1.3,2.0,82,0.00,,,0.56,WUHU216HW,2013-08-08 18:16:00,
2013-08-08 13:21:00,80.1,73.8,29.81,NW,315,0.4,2.0,81,0.00,,,0.56,WUHU216HW,2013-08-08 18:21:00,
2013-08-08 13:26:00,79.9,72.9,29.81,WSW,248,0.9,1.8,79,0.00,,,0.56,WUHU216HW,2013-08-08 18:26:00,
2013-08-08 13:31:00,79.7,73.8,29.81,North,0,1.1,2.2,82,0.00,,,0.56,WUHU216HW,2013-08-08 18:31:00,
2013-08-08 13:36:00,79.7,73.1,29.80,WSW,248,1.6,2.2,80,0.00,,,0.56,WUHU216HW,2013-08-08 18:36:00,
2013-08-08 13:41:00,79.9,73.6,29.81,NW,323,0.6,1.6,81,0.00,,,0.56,WUHU216HW,2013-08-08 18:41:00,
2013-08-08 13:46:00,80.5,74.2,29.81,NNW,338,1.8,1.8,81,0.00,,,0.56,WUHU216HW,2013-08-08 18:46:00,
2013-08-08 13:51:00,80.6,74.4,29.81,NNE,15,1.9,2.5,81,0.00,,,0.56,WUHU216HW,2013-08-08 18:51:00,
2013-08-08 13:56:00,80.6,73.6,29.81,WNW,293,0.8,2.5,79,0.00,,,0.56,WUHU216HW,2013-08-08 18:56:00,
2013-08-08 14:01:00,80.6,73.2,29.81,West,270,0.9,1.1,78,0.00,,,0.56,WUHU216HW,2013-08-08 19:01:00,
2013-08-08 14:06:00,80.6,74.0,29.81,West,270,0.2,1.1,80,0.00,,,0.56,WUHU216HW,2013-08-08 19:06:00,
2013-08-08 14:11:00,81.0,73.5,29.82,SW,225,2.5,2.5,78,0.00,,,0.56,WUHU216HW,2013-08-08 19:11:00,
2013-08-08 14:16:00,81.4,73.9,29.82,North,0,1.1,2.5,78,0.00,,,0.56,WUHU216HW,2013-08-08 19:16:00,
2013-08-08 14:21:00,81.4,73.9,29.82,NNW,342,1.2,2.0,78,0.00,,,0.56,WUHU216HW,2013-08-08 19:21:00,
2013-08-08 14:26:00,81.5,73.7,29.82,SW,225,1.1,1.3,77,0.00,,,0.56,WUHU216HW,2013-08-08 19:26:00,
2013-08-08 14:31:00,81.4,74.4,29.82,SW,225,0.0,1.1,79,0.00,,,0.56,WUHU216HW,2013-08-08 19:31:00,
2013-08-08 14:36:00,81.4,74.4,29.82,North,0,0.2,1.3,79,0.00,,,0.56,WUHU216HW,2013-08-08 19:36:00,
2013-08-08 14:41:00,81.2,74.2,29.82,NNE,23,1.2,3.4,79,0.00,,,0.56,WUHU216HW,2013-08-08 19:41:00,
2013-08-08 14:46:00,81.2,73.4,29.82,ENE,68,0.4,3.4,77,0.00,,,0.56,WUHU216HW,2013-08-08 19:46:00,
2013-08-08 14:51:00,81.4,74.7,29.82,NNE,14,0.9,1.8,80,0.00,,,0.56,WUHU216HW,2013-08-08 19:51:00,
2013-08-08 14:57:00,81.7,75.1,29.82,NNW,338,0.6,1.8,80,0.00,,,0.56,WUHU216HW,2013-08-08 19:57:00,
2013-08-08 15:02:00,81.5,74.4,29.82,North,0,1.6,1.6,79,0.00,,,0.56,WUHU216HW,2013-08-08 20:02:00,
2013-08-08 15:07:00,81.4,73.5,29.82,NW,315,0.4,1.6,77,0.00,,,0.56,WUHU216HW,2013-08-08 20:07:00,
2013-08-08 15:12:00,81.5,74.4,29.82,NNW,345,1.0,1.3,79,0.00,,,0.56,WUHU216HW,2013-08-08 20:12:00,
2013-08-08 15:17:00,81.5,74.9,29.83,NW,315,0.8,1.3,80,0.00,,,0.56,WUHU216HW,2013-08-08 20:17:00,
2013-08-08 15:22:00,81.4,74.4,29.83,North,0,1.3,1.3,79,0.00,,,0.56,WUHU216HW,2013-08-08 20:22:00,
2013-08-08 15:27:00,81.4,74.7,29.83,North,0,0.3,1.3,80,0.00,,,0.56,WUHU216HW,2013-08-08 20:27:00,
2013-08-08 15:32:00,81.2,74.5,29.83,WSW,248,0.4,1.1,80,0.00,,,0.56,WUHU216HW,2013-08-08 20:32:00,
2013-08-08 15:37:00,81.0,74.3,29.83,WNW,293,1.1,1.1,80,0.00,,,0.56,WUHU216HW,2013-08-08 20:37:00,
2013-08-08 15:42:00,81.0,74.7,29.83,NW,315,0.4,1.1,81,0.00,,,0.56,WUHU216HW,2013-08-08 20:42:00,
2013-08-08 15:47:00,81.2,74.9,29.83,WNW,293,1.8,2.9,81,0.00,,,0.56,WUHU216HW,2013-08-08 20:47:00,
2013-08-08 15:52:00,81.2,74.5,29.83,West,270,0.7,2.9,80,0.00,,,0.56,WUHU216HW,2013-08-08 20:52:00,
2013-08-08 15:57:00,81.0,74.0,29.83,WSW,248,0.6,1.3,79,0.00,,,0.56,WUHU216HW,2013-08-08 20:57:00,
2013-08-08 16:02:00,81.0,74.3,29.83,NW,315,0.7,1.3,80,0.00,,,0.56,WUHU216HW,2013-08-08 21:02:00,
2013-08-08 16:07:00,80.8,74.5,29.83,NW,315,0.2,0.7,81,0.00,,,0.56,WUHU216HW,2013-08-08 21:07:00,
2013-08-08 16:12:00,80.6,74.4,29.83,WNW,302,0.6,0.9,81,0.00,,,0.56,WUHU216HW,2013-08-08 21:12:00,
2013-08-08 16:17:00,80.6,74.7,29.83,NW,315,0.7,0.9,82,0.00,,,0.56,WUHU216HW,2013-08-08 21:17:00,
2013-08-08 16:22:00,80.6,74.7,29.83,NW,315,0.4,1.1,82,0.00,,,0.56,WUHU216HW,2013-08-08 21:22:00,
2013-08-08 16:27:00,80.5,74.5,29.83,North,0,0.2,1.1,82,0.00,,,0.56,WUHU216HW,2013-08-08 21:27:00,
2013-08-08 16:32:00,80.3,74.4,29.83,North,0,0.8,1.3,82,0.00,,,0.56,WUHU216HW,2013-08-08 21:32:00,
2013-08-08 16:38:00,80.3,74.7,29.83,NNW,338,0.4,1.3,83,0.00,,,0.56,WUHU216HW,2013-08-08 21:38:00,
2013-08-08 16:43:00,80.1,74.5,29.83,NW,315,0.2,1.1,83,0.00,,,0.56,WUHU216HW,2013-08-08 21:43:00,
2013-08-08 16:48:00,79.9,74.7,29.83,NW,315,0.0,1.1,84,0.00,,,0.56,WUHU216HW,2013-08-08 21:48:00,
2013-08-08 16:53:00,79.9,74.7,29.83,NNE,23,0.9,1.8,84,0.00,,,0.56,WUHU216HW,2013-08-08 21:53:00,
2013-08-08 16:58:00,79.9,74.4,29.83,NNE,23,0.2,1.8,83,0.00,,,0.56,WUHU216HW,2013-08-08 21:58:00,
2013-08-08 17:03:00,79.9,74.4,29.83,NNE,23,0.2,0.9,83,0.00,,,0.56,WUHU216HW,2013-08-08 22:03:00,
2013-08-08 17:09:00,79.7,74.2,29.83,NNW,338,0.0,0.9,83,0.00,,,0.56,WUHU216HW,2013-08-08 22:09:00,
2013-08-08 17:14:00,79.6,74.0,29.83,NNW,338,0.4,0.4,83,0.00,,,0.56,WUHU216HW,2013-08-08 22:14:00,
2013-08-08 17:19:00,79.4,74.2,29.83,NNW,338,0.0,0.4,84,0.00,,,0.56,WUHU216HW,2013-08-08 22:19:00,
2013-08-08 17:25:00,79.2,74.0,29.83,NNW,338,0.0,0.4,84,0.00,,,0.56,WUHU216HW,2013-08-08 22:25:00,
2013-08-08 17:30:00,79.2,74.4,29.83,NNW,338,0.0,0.2,85,0.00,,,0.56,WUHU216HW,2013-08-08 22:30:00,
2013-08-08 17:35:00,79.0,74.2,29.83,NNW,338,0.0,0.7,85,0.00,,,0.56,WUHU216HW,2013-08-08 22:35:00,
2013-08-08 17:40:00,79.0,74.2,29.83,NNW,338,0.0,0.7,85,0.00,,,0.56,WUHU216HW,2013-08-08 22:40:00,
2013-08-08 17:45:00,78.8,74.0,29.83,NNW,338,0.0,0.0,85,0.00,,,0.56,WUHU216HW,2013-08-08 22:45:00,
2013-08-08 17:50:00,78.8,74.0,29.83,NNW,338,0.4,0.4,85,0.00,,,0.56,WUHU216HW,2013-08-08 22:50:00,
2013-08-08 17:55:00,78.8,74.0,29.83,NNW,338,0.1,0.4,85,0.00,,,0.56,WUHU216HW,2013-08-08 22:55:00,
2013-08-08 18:00:00,78.8,74.0,29.83,NNW,338,0.0,0.2,85,0.00,,,0.56,WUHU216HW,2013-08-08 23:00:00,
2013-08-08 18:06:00,78.8,74.0,29.82,NNW,338,0.2,0.2,85,0.00,,,0.56,WUHU216HW,2013-08-08 23:06:00,
2013-08-08 18:11:00,78.8,74.3,29.83,NNW,338,0.1,0.7,86,0.00,,,0.56,WUHU216HW,2013-08-08 23:11:00,
2013-08-08 18:16:00,78.8,74.3,29.83,NNW,338,0.4,0.7,86,0.00,,,0.56,WUHU216HW,2013-08-08 23:16:00,
2013-08-08 18:21:00,78.7,74.2,29.82,NNW,338,0.0,0.7,86,0.00,,,0.56,WUHU216HW,2013-08-08 23:21:00,
2013-08-08 18:26:00,78.5,74.3,29.82,NNW,338,0.0,0.4,87,0.00,,,0.56,WUHU216HW,2013-08-08 23:26:00,
2013-08-08 18:31:00,78.5,74.3,29.83,NNW,338,0.0,0.4,87,0.00,,,0.56,WUHU216HW,2013-08-08 23:31:00,
2013-08-08 18:36:00,78.5,74.3,29.82,NNW,338,0.4,0.9,87,0.00,,,0.56,WUHU216HW,2013-08-08 23:36:00,
2013-08-08 18:41:00,78.5,74.3,29.82,NNW,338,0.7,0.9,87,0.00,,,0.56,WUHU216HW,2013-08-08 23:41:00,
2013-08-08 18:46:00,78.3,74.2,29.83,NNW,338,0.0,0.7,87,0.00,,,0.56,WUHU216HW,2013-08-08 23:46:00,
2013-08-08 18:52:00,78.3,74.2,29.83,NNW,338,0.0,0.2,87,0.00,,,0.56,WUHU216HW,2013-08-08 23:52:00,
2013-08-08 18:57:00,78.3,74.2,29.83,NNW,338,0.1,0.2,87,0.00,,,0.56,WUHU216HW,2013-08-08 23:57:00,
2013-08-08 19:02:00,78.5,74.3,29.83,NNW,338,0.0,0.2,87,0.00,,,0.56,WUHU216HW,2013-08-09 00:02:00,
2013-08-08 19:07:00,78.5,74.7,29.83,NNW,338,0.7,0.7,88,0.00,,,0.56,WUHU216HW,2013-08-09 00:07:00,
2013-08-08 19:12:00,78.5,74.3,29.83,NNW,338,0.0,0.7,87,0.00,,,0.56,WUHU216HW,2013-08-09 00:12:00,
2013-08-08 19:17:00,78.5,74.3,29.83,NNW,338,0.4,0.4,87,0.00,,,0.56,WUHU216HW,2013-08-09 00:17:00,
2013-08-08 19:22:00,78.5,74.3,29.83,NNW,338,0.0,0.4,87,0.00,,,0.56,WUHU216HW,2013-08-09 00:22:00,
2013-08-08 19:27:00,78.3,74.5,29.83,NNW,338,0.0,0.0,88,0.00,,,0.56,WUHU216HW,2013-08-09 00:27:00,
2013-08-08 19:32:00,78.3,74.5,29.83,NNW,338,0.0,0.0,88,0.00,,,0.56,WUHU216HW,2013-08-09 00:32:00,
2013-08-08 19:37:00,78.1,74.3,29.83,NNW,338,0.4,0.4,88,0.00,,,0.56,WUHU216HW,2013-08-09 00:37:00,
2013-08-08 19:42:00,78.1,74.3,29.83,NNW,338,0.4,0.4,88,0.00,,,0.56,WUHU216HW,2013-08-09 00:42:00,
2013-08-08 19:47:00,77.9,74.2,29.83,NNW,338,0.0,0.4,88,0.00,,,0.56,WUHU216HW,2013-08-09 00:47:00,
2013-08-08 19:52:00,77.9,74.2,29.83,NNW,338,0.0,0.0,88,0.00,,,0.56,WUHU216HW,2013-08-09 00:52:00,
2013-08-08 19:58:00,77.6,73.8,29.83,NNW,338,0.0,0.0,88,0.00,,,0.56,WUHU216HW,2013-08-09 00:58:00,
2013-08-08 20:03:00,77.4,73.6,29.82,NNE,23,2.0,2.2,88,0.00,,,0.56,WUHU216HW,2013-08-09 01:03:00,
2013-08-08 20:08:00,77.4,73.6,29.82,North,0,3.4,3.4,88,0.00,,,0.56,WUHU216HW,2013-08-09 01:08:00,
2013-08-08 20:13:00,77.4,73.6,29.82,NNE,23,1.8,3.4,88,0.00,,,0.56,WUHU216HW,2013-08-09 01:13:00,
2013-08-08 20:18:00,77.4,73.6,29.82,NNW,338,0.6,3.4,88,0.00,,,0.56,WUHU216HW,2013-08-09 01:18:00,
2013-08-08 20:23:00,77.2,73.4,29.82,NNE,23,1.8,2.0,88,0.00,,,0.56,WUHU216HW,2013-08-09 01:23:00,
2013-08-08 20:28:00,77.0,73.3,29.81,North,0,1.6,2.0,88,0.00,,,0.56,WUHU216HW,2013-08-09 01:28:00,
2013-08-08 20:33:00,76.9,73.1,29.82,NE,35,1.2,2.0,88,0.00,,,0.56,WUHU216HW,2013-08-09 01:33:00,
2013-08-08 20:39:00,76.7,72.9,29.82,NNE,23,1.1,2.2,88,0.00,,,0.56,WUHU216HW,2013-08-09 01:39:00,
2013-08-08 20:44:00,76.5,72.7,29.82,North,0,0.9,2.2,88,0.00,,,0.56,WUHU216HW,2013-08-09 01:44:00,
2013-08-08 20:49:00,76.3,72.5,29.83,North,0,2.2,2.7,88,0.00,,,0.56,WUHU216HW,2013-08-09 01:49:00,
2013-08-08 20:55:00,76.1,72.0,29.83,ENE,68,1.3,2.2,87,0.00,,,0.56,WUHU216HW,2013-08-09 01:55:00,
2013-08-08 21:01:00,76.1,72.0,29.84,NNE,23,1.6,1.6,87,0.00,,,0.56,WUHU216HW,2013-08-09 02:01:00,
2013-08-08 21:06:00,76.1,72.0,29.83,NNE,23,0.3,1.6,87,0.00,,,0.56,WUHU216HW,2013-08-09 02:06:00,
2013-08-08 21:11:00,76.1,72.0,29.84,NE,45,0.4,0.9,87,0.00,,,0.56,WUHU216HW,2013-08-09 02:11:00,
2013-08-08 21:16:00,76.1,72.0,29.84,North,0,0.7,2.5,87,0.00,,,0.56,WUHU216HW,2013-08-09 02:16:00,
2013-08-08 21:21:00,76.0,72.2,29.84,NW,315,0.9,2.5,88,0.00,,,0.56,WUHU216HW,2013-08-09 02:21:00,
2013-08-08 21:26:00,76.0,72.2,29.85,North,0,0.4,2.5,88,0.00,,,0.56,WUHU216HW,2013-08-09 02:26:00,
2013-08-08 21:31:00,76.0,72.2,29.86,North,0,1.1,2.5,88,0.00,,,0.56,WUHU216HW,2013-08-09 02:31:00,
2013-08-08 21:36:00,75.8,72.0,29.86,North,0,1.1,1.1,88,0.00,,,0.56,WUHU216HW,2013-08-09 02:36:00,
2013-08-08 21:41:00,75.8,72.0,29.86,North,0,0.8,1.3,88,0.00,,,0.56,WUHU216HW,2013-08-09 02:41:00,
2013-08-08 21:47:00,75.8,72.0,29.86,North,0,1.3,1.6,88,0.00,,,0.56,WUHU216HW,2013-08-09 02:47:00,
2013-08-08 21:52:00,75.6,72.2,29.86,North,0,2.5,2.5,89,0.00,,,0.56,WUHU216HW,2013-08-09 02:52:00,
2013-08-08 21:57:00,75.6,72.2,29.86,North,0,0.8,4.5,89,0.00,,,0.56,WUHU216HW,2013-08-09 02:57:00,
2013-08-08 22:02:00,75.6,72.2,29.86,North,0,0.3,4.5,89,0.00,,,0.56,WUHU216HW,2013-08-09 03:02:00,
2013-08-08 22:07:00,75.4,72.0,29.87,North,0,0.2,1.1,89,0.00,,,0.56,WUHU216HW,2013-08-09 03:07:00,
2013-08-08 22:12:00,75.2,71.8,29.88,North,0,0.1,1.1,89,0.00,,,0.56,WUHU216HW,2013-08-09 03:12:00,
2013-08-08 22:17:00,75.1,71.6,29.88,North,0,0.2,0.4,89,0.00,,,0.56,WUHU216HW,2013-08-09 03:17:00,
2013-08-08 22:22:00,75.1,71.6,29.87,NNE,29,0.6,0.9,89,0.00,,,0.56,WUHU216HW,2013-08-09 03:22:00,
2013-08-08 22:27:00,74.9,71.5,29.87,ESE,113,1.9,2.5,89,0.00,,,0.56,WUHU216HW,2013-08-09 03:27:00,
2013-08-08 22:32:00,74.9,71.5,29.87,ESE,113,2.7,2.7,89,0.00,,,0.56,WUHU216HW,2013-08-09 03:32:00,
2013-08-08 22:38:00,74.9,71.5,29.88,ESE,113,1.6,2.7,89,0.00,,,0.56,WUHU216HW,2013-08-09 03:38:00,
2013-08-08 22:43:00,74.9,71.5,29.87,ESE,113,0.4,2.5,89,0.00,,,0.56,WUHU216HW,2013-08-09 03:43:00,
2013-08-08 22:48:00,74.9,71.8,29.88,East,90,0.4,2.2,90,0.00,,,0.56,WUHU216HW,2013-08-09 03:48:00,
2013-08-08 22:54:00,74.9,71.8,29.88,ESE,113,0.7,0.9,90,0.00,,,0.56,WUHU216HW,2013-08-09 03:54:00,
2013-08-08 22:59:00,74.7,71.6,29.88,NNW,338,0.4,0.9,90,0.00,,,0.56,WUHU216HW,2013-08-09 03:59:00,
2013-08-08 23:01:00,74.7,71.6,29.87,NNW,338,0.1,0.7,90,0.00,,,0.56,WUHU216HW,2013-08-09 04:01:00,
2013-08-08 23:06:00,74.7,71.6,29.87,ENE,68,0.4,0.4,90,0.00,,,0.56,WUHU216HW,2013-08-09 04:06:00,
2013-08-08 23:11:00,74.7,71.9,29.87,East,90,0.4,0.7,91,0.00,,,0.56,WUHU216HW,2013-08-09 04:11:00,
2013-08-08 23:16:00,74.7,71.9,29.87,SE,135,0.8,1.1,91,0.00,,,0.56,WUHU216HW,2013-08-09 04:16:00,
2013-08-08 23:21:00,74.5,71.7,29.88,NNE,23,1.1,1.8,91,0.00,,,0.56,WUHU216HW,2013-08-09 04:21:00,
2013-08-08 23:26:00,74.5,71.7,29.87,ENE,68,0.9,1.8,91,0.00,,,0.56,WUHU216HW,2013-08-09 04:26:00,
2013-08-08 23:31:00,74.5,71.7,29.87,NE,45,0.4,1.1,91,0.00,,,0.56,WUHU216HW,2013-08-09 04:31:00,
2013-08-08 23:36:00,74.5,71.7,29.87,ENE,68,0.2,2.2,91,0.00,,,0.56,WUHU216HW,2013-08-09 04:36:00,
2013-08-08 23:41:00,74.5,71.7,29.87,ENE,68,0.4,2.2,91,0.00,,,0.56,WUHU216HW,2013-08-09 04:41:00,
2013-08-08 23:46:00,74.5,71.7,29.87,East,90,0.4,0.9,91,0.00,,,0.56,WUHU216HW,2013-08-09 04:46:00,
2013-08-08 23:51:00,74.5,71.7,29.87,NNE,23,0.6,0.7,91,0.00,,,0.56,WUHU216HW,2013-08-09 04:51:00,
2013-08-08 23:56:00,74.5,71.7,29.87,SE,143,0.3,1.1,91,0.00,,,0.56,WUHU216HW,2013-08-09 04:56:00,